createdAt,value
2019-04-22T00:01:50.378Z,100454.84
2019-04-22T00:04:32.305Z,100454.09
2019-04-22T00:07:08.665Z,100452.39
2019-04-22T00:09:49.917Z,100447.27
2019-04-22T00:12:22.280Z,100442.86
2019-04-22T00:14:43.857Z,100439.94
2019-04-22T00:17:23.305Z,100438.34
2019-04-22T00:19:52.328Z,100441.13
2019-04-22T00:22:23.584Z,100439.03
2019-04-22T00:24:51.224Z,100434.16
2019-04-22T00:27:29.530Z,100432.58
2019-04-22T00:30:05.356Z,100426.87
2019-04-22T00:32:51.290Z,100421.35
2019-04-22T00:35:19.503Z,100419.30
2019-04-22T00:37:56.734Z,100414.53
2019-04-22T00:40:30.272Z,100413.77
2019-04-22T00:42:53.576Z,100412.08
2019-04-22T00:45:26.931Z,100412.18
2019-04-22T00:48:01.073Z,100407.92
2019-04-22T00:53:03.951Z,100407.63
2019-04-22T00:55:32.703Z,100410.91
2019-04-22T00:58:06.125Z,100406.15
2019-04-22T01:00:31.002Z,100404.16
2019-04-22T01:03:14.436Z,100406.47
2019-04-22T01:05:34.438Z,100405.34
2019-04-22T01:08:06.872Z,100402.31
2019-04-22T01:10:44.075Z,100402.78
2019-04-22T01:13:08.040Z,100400.70
2019-04-22T01:15:43.271Z,100400.80
2019-04-22T01:18:08.272Z,100397.02
2019-04-22T01:23:09.579Z,100387.41
2019-04-22T01:25:40.326Z,100386.66
2019-04-22T01:28:00.933Z,100388.49
2019-04-22T01:30:27.871Z,100380.70
2019-04-22T01:32:52.086Z,100379.94
2019-04-22T01:35:32.099Z,100380.05
2019-04-22T01:38:07.809Z,100381.12
2019-04-22T01:40:47.728Z,100382.81
2019-04-22T01:43:18.625Z,100377.69
2019-04-22T01:45:47.670Z,100373.33
2019-04-22T01:48:17.980Z,100369.53
2019-04-22T01:50:48.418Z,100371.91
2019-04-22T01:53:24.595Z,100368.02
2019-04-22T01:55:52.286Z,100366.39
2019-04-22T01:58:17.107Z,100364.20
2019-04-22T02:00:58.258Z,100358.03
2019-04-22T02:03:27.954Z,100359.47
2019-04-22T02:05:50.770Z,100357.38
2019-04-22T02:08:31.297Z,100348.61
2019-04-22T02:10:57.641Z,100353.22
2019-04-22T02:13:29.177Z,100351.48
2019-04-22T02:16:00.235Z,100350.26
2019-04-22T02:18:31.759Z,100346.87
2019-04-22T02:20:59.712Z,100345.53
2019-04-22T02:26:22.926Z,100337.95
2019-04-22T02:28:38.038Z,100341.95
2019-04-22T02:31:23.537Z,100334.99
2019-04-22T02:43:55.411Z,100321.72
2019-04-22T02:51:18.795Z,100317.66
2019-04-22T02:54:15.321Z,100316.80
2019-04-22T03:01:24.762Z,100310.19
2019-04-22T03:04:04.544Z,100311.16
2019-04-22T03:11:34.241Z,100302.24
2019-04-22T03:16:29.761Z,100293.12
2019-04-22T03:24:08.513Z,100284.31
2019-04-22T03:26:34.136Z,100291.34
2019-04-22T03:39:38.070Z,100288.83
2019-04-22T03:47:12.163Z,100284.53
2019-04-22T03:49:38.892Z,100279.91
2019-04-22T03:52:10.907Z,100279.51
2019-04-22T03:57:24.967Z,100286.48
2019-04-22T03:59:41.444Z,100288.78
2019-04-22T04:04:36.961Z,100287.18
2019-04-22T04:07:20.554Z,100287.28
2019-04-22T04:17:09.650Z,100285.86
2019-04-22T04:19:43.379Z,100284.73
2019-04-22T04:22:26.756Z,100280.37
2019-04-22T04:24:57.979Z,100281.41
2019-04-22T04:27:30.922Z,100278.34
2019-04-22T04:32:30.805Z,100280.17
2019-04-22T04:37:32.129Z,100275.88
2019-04-22T04:39:57.922Z,100276.84
2019-04-22T04:47:28.805Z,100281.61
2019-04-22T04:52:35.444Z,100273.63
2019-04-22T04:57:23.478Z,100274.22
2019-04-22T05:02:30.906Z,100276.58
2019-04-22T05:07:34.255Z,100279.24
2019-04-22T05:09:59.618Z,100280.67
2019-04-22T05:12:34.305Z,100275.66
2019-04-22T05:14:55.026Z,100276.58
2019-04-22T05:17:25.544Z,100274.78
2019-04-22T05:19:59.081Z,100266.03
2019-04-22T05:22:28.051Z,100268.80
2019-04-22T05:24:58.190Z,100274.13
2019-04-22T05:27:29.397Z,100266.73
2019-04-22T05:30:07.526Z,100272.52
2019-04-22T05:32:24.604Z,100273.29
2019-04-22T05:34:56.715Z,100272.59
2019-04-22T05:37:27.310Z,100269.83
2019-04-22T05:39:58.713Z,100264.03
2019-04-22T05:42:22.806Z,100272.69
2019-04-22T05:47:38.960Z,100265.73
2019-04-22T05:50:07.535Z,100265.89
2019-04-22T05:52:40.525Z,100261.26
2019-04-22T05:55:16.689Z,100266.28
2019-04-22T05:57:44.250Z,100262.55
2019-04-22T06:00:25.857Z,100263.58
2019-04-22T06:02:53.501Z,100257.67
2019-04-22T06:05:19.655Z,100255.64
2019-04-22T06:07:50.689Z,100256.77
2019-04-22T06:10:29.302Z,100253.42
2019-04-22T06:12:46.585Z,100259.41
2019-04-22T06:15:21.182Z,100253.38
2019-04-22T06:17:57.597Z,100250.50
2019-04-22T06:20:28.626Z,100251.16
2019-04-22T06:25:28.285Z,100247.61
2019-04-22T06:27:54.397Z,100252.73
2019-04-22T06:33:00.913Z,100245.14
2019-04-22T06:38:22.790Z,100233.84
2019-04-22T06:43:03.430Z,100235.83
2019-04-22T06:45:30.576Z,100233.31
2019-04-22T06:50:40.191Z,100227.55
2019-04-22T06:53:06.806Z,100226.98
2019-04-22T06:55:48.227Z,100220.56
2019-04-22T06:58:04.616Z,100223.87
2019-04-22T07:00:40.373Z,100222.33
2019-04-22T07:03:30.102Z,100223.27
2019-04-22T07:05:37.742Z,100218.83
2019-04-22T07:08:16.294Z,100214.86
2019-04-22T07:13:10.710Z,100217.98
2019-04-22T07:18:14.251Z,100206.40
2019-04-22T07:20:47.270Z,100207.52
2019-04-22T07:23:15.451Z,100201.45
2019-04-22T07:25:40.726Z,100202.56
2019-04-22T07:28:13.837Z,100205.39
2019-04-22T07:30:57.955Z,100203.84
2019-04-22T07:38:22.217Z,100197.33
2019-04-22T07:40:51.947Z,100193.48
2019-04-22T07:43:21.411Z,100194.20
2019-04-22T07:46:03.503Z,100200.42
2019-04-22T07:48:26.194Z,100202.39
2019-04-22T07:50:56.038Z,100196.83
2019-04-22T07:53:19.605Z,100199.27
2019-04-22T07:55:55.461Z,100192.13
2019-04-22T07:58:27.405Z,100199.05
2019-04-22T08:00:55.953Z,100196.50
2019-04-22T08:03:28.982Z,100197.48
2019-04-22T08:06:08.318Z,100192.45
2019-04-22T08:08:26.149Z,100192.70
2019-04-22T08:10:57.929Z,100187.13
2019-04-22T08:13:24.817Z,100198.09
2019-04-22T08:15:58.269Z,100186.55
2019-04-22T08:18:28.978Z,100196.66
2019-04-22T08:20:59.015Z,100197.02
2019-04-22T08:23:30.919Z,100195.95
2019-04-22T08:25:55.700Z,100197.65
2019-04-22T08:28:32.112Z,100196.94
2019-04-22T08:31:04.188Z,100185.89
2019-04-22T08:38:37.257Z,100193.33
2019-04-22T08:41:17.792Z,100188.10
2019-04-22T08:43:54.662Z,100189.94
2019-04-22T08:46:16.690Z,100179.84
2019-04-22T08:48:43.980Z,100176.10
2019-04-22T08:51:15.469Z,100172.21
2019-04-22T08:53:50.459Z,100180.34
2019-04-22T08:58:55.495Z,100173.92
2019-04-22T09:03:52.359Z,100171.75
2019-04-22T09:06:34.193Z,100169.55
2019-04-22T09:08:55.308Z,100167.41
2019-04-22T09:11:33.714Z,100168.61
2019-04-22T09:13:55.159Z,100159.88
2019-04-22T09:16:26.495Z,100164.12
2019-04-22T09:18:56.109Z,100157.55
2019-04-22T09:21:44.052Z,100157.69
2019-04-22T09:24:02.154Z,100152.69
2019-04-22T09:26:34.761Z,100147.71
2019-04-22T09:28:59.939Z,100156.44
2019-04-22T09:31:24.232Z,100145.87
2019-04-22T09:33:53.620Z,100140.02
2019-04-22T09:39:09.480Z,100144.85
2019-04-22T09:41:36.751Z,100139.88
2019-04-22T09:46:34.639Z,100136.08
2019-04-22T09:49:08.028Z,100132.45
2019-04-22T09:51:30.738Z,100131.45
2019-04-22T09:54:08.628Z,100128.30
2019-04-22T09:56:37.343Z,100125.75
2019-04-22T09:59:03.816Z,100123.08
2019-04-22T10:04:06.970Z,100114.16
2019-04-22T10:06:47.911Z,100110.02
2019-04-22T10:11:47.054Z,100101.98
2019-04-22T10:14:12.343Z,100098.30
2019-04-22T10:16:43.652Z,100091.50
2019-04-22T10:19:12.328Z,100089.30
2019-04-22T10:21:46.331Z,100085.89
2019-04-22T10:24:13.726Z,100083.82
2019-04-22T10:31:43.565Z,100080.89
2019-04-22T10:34:05.878Z,100077.48
2019-04-22T10:36:21.437Z,100067.75
2019-04-22T10:38:50.880Z,100069.35
2019-04-22T10:41:20.707Z,100060.94
2019-04-22T10:43:50.943Z,100050.13
2019-04-22T10:46:19.931Z,100058.03
2019-04-22T10:48:50.042Z,100049.27
2019-04-22T10:51:18.994Z,100043.34
2019-04-22T10:53:49.247Z,100035.57
2019-04-22T10:56:19.009Z,100038.25
2019-04-22T10:58:48.920Z,100024.48
2019-04-22T11:01:17.996Z,100032.38
2019-04-22T11:03:46.967Z,100025.34
2019-04-22T11:06:17.158Z,100019.13
2019-04-22T11:08:52.338Z,100021.33
2019-04-22T11:11:31.436Z,100019.13
2019-04-22T11:13:47.560Z,100012.44
2019-04-22T11:16:17.434Z,100009.28
2019-04-22T11:18:47.550Z,100002.45
2019-04-22T11:21:17.911Z,99996.24
2019-04-22T11:23:47.104Z,99991.75
2019-04-22T11:26:15.937Z,99990.77
2019-04-22T11:28:45.480Z,99985.91
2019-04-22T11:31:14.853Z,99983.11
2019-04-22T11:33:44.808Z,99987.13
2019-04-22T11:36:15.616Z,99987.13
2019-04-22T11:38:51.146Z,99979.09
2019-04-22T11:41:16.733Z,99971.41
2019-04-22T11:43:47.378Z,99973.61
2019-04-22T11:46:17.646Z,99975.65
2019-04-22T11:48:46.093Z,99966.28
2019-04-22T11:51:15.942Z,99968.13
2019-04-22T11:53:45.176Z,99963.25
2019-04-22T11:56:14.199Z,99959.45
2019-04-22T11:58:44.504Z,99961.66
2019-04-22T12:01:14.793Z,99959.33
2019-04-22T12:03:44.229Z,99957.03
2019-04-22T12:06:13.485Z,99955.82
2019-04-22T12:08:43.720Z,99951.80
2019-04-22T12:11:13.717Z,99949.00
2019-04-22T12:13:44.042Z,99952.50
2019-04-22T12:16:13.623Z,99943.86
2019-04-22T12:18:43.083Z,99941.66
2019-04-22T12:21:13.176Z,99948.95
2019-04-22T12:23:43.452Z,99938.59
2019-04-22T12:26:16.258Z,99939.45
2019-04-22T12:28:42.314Z,99932.02
2019-04-22T12:31:11.355Z,99928.26
2019-04-22T12:33:41.260Z,99930.16
2019-04-22T12:36:11.074Z,99927.03
2019-04-22T12:38:40.049Z,99919.86
2019-04-22T12:41:11.964Z,99910.84
2019-04-22T12:43:40.980Z,99913.38
2019-04-22T12:46:10.240Z,99905.70
2019-04-22T12:48:39.341Z,99901.06
2019-04-22T12:51:09.224Z,99899.38
2019-04-22T12:53:38.358Z,99897.78
2019-04-22T12:56:07.378Z,99894.10
2019-04-22T12:58:37.829Z,99886.41
2019-04-22T13:01:08.658Z,99886.28
2019-04-22T13:03:38.292Z,99884.47
2019-04-22T13:06:07.848Z,99882.51
2019-04-22T13:08:38.085Z,99883.72
2019-04-22T13:11:11.713Z,99883.58
2019-04-22T13:13:38.721Z,99874.20
2019-04-22T13:16:08.996Z,99872.87
2019-04-22T13:18:44.378Z,99866.25
2019-04-22T13:21:08.767Z,99864.91
2019-04-22T13:23:38.945Z,99855.40
2019-04-22T13:26:07.507Z,99852.58
2019-04-22T13:28:36.852Z,99851.25
2019-04-22T13:31:05.936Z,99847.57
2019-04-22T13:33:34.785Z,99843.28
2019-04-22T13:36:03.853Z,99835.97
2019-04-22T13:38:33.170Z,99826.94
2019-04-22T13:41:16.422Z,99828.86
2019-04-22T13:43:34.330Z,99830.06
2019-04-22T13:46:03.890Z,99827.97
2019-04-22T13:48:53.378Z,99823.16
2019-04-22T13:51:43.161Z,99817.53
2019-04-22T13:56:24.893Z,99817.70
2019-04-22T13:58:49.877Z,99819.62
2019-04-22T14:01:12.700Z,99814.33
2019-04-22T14:04:00.837Z,99804.66
2019-04-22T14:06:31.092Z,99803.19
2019-04-22T14:09:01.023Z,99803.25
2019-04-22T14:11:39.064Z,99811.02
2019-04-22T14:14:00.974Z,99804.64
2019-04-22T14:16:31.133Z,99807.25
2019-04-22T14:19:00.515Z,99805.72
2019-04-22T14:21:30.591Z,99806.83
2019-04-22T14:23:58.794Z,99791.39
2019-04-22T14:26:41.331Z,99797.09
2019-04-22T14:28:59.911Z,99796.19
2019-04-22T14:31:28.969Z,99796.59
2019-04-22T14:34:01.724Z,99788.55
2019-04-22T14:36:29.746Z,99779.02
2019-04-22T14:38:59.763Z,99786.88
2019-04-22T14:41:42.572Z,99778.94
2019-04-22T14:45:04.997Z,99781.13
2019-04-22T14:47:03.557Z,99768.98
2019-04-22T14:49:24.027Z,99773.28
2019-04-22T14:51:55.025Z,99771.31
2019-04-22T14:54:21.179Z,99764.80
2019-04-22T14:56:34.199Z,99768.25
2019-04-22T14:59:04.985Z,99770.30
2019-04-22T15:01:35.314Z,99764.70
2019-04-22T15:04:05.450Z,99761.88
2019-04-22T15:06:35.806Z,99754.20
2019-04-22T15:09:08.057Z,99762.20
2019-04-22T15:11:50.775Z,99762.58
2019-04-22T15:14:07.740Z,99759.48
2019-04-22T15:16:55.162Z,99756.51
2019-04-22T15:19:43.589Z,99745.19
2019-04-22T15:22:12.893Z,99745.52
2019-04-22T15:24:42.632Z,99755.55
2019-04-22T15:27:11.629Z,99748.33
2019-04-22T15:29:41.163Z,99740.95
2019-04-22T15:32:11.771Z,99741.85
2019-04-22T15:34:41.597Z,99738.38
2019-04-22T15:37:11.834Z,99747.48
2019-04-22T15:39:41.522Z,99737.69
2019-04-22T15:42:18.417Z,99743.42
2019-04-22T15:44:42.215Z,99734.95
2019-04-22T15:47:11.295Z,99750.52
2019-04-22T15:49:40.319Z,99735.59
2019-04-22T15:52:10.447Z,99735.52
2019-04-22T15:54:39.437Z,99734.02
2019-04-22T15:57:08.959Z,99735.59
2019-04-22T15:59:54.081Z,99736.59
2019-04-22T16:02:10.051Z,99731.25
2019-04-22T16:04:41.006Z,99736.48
2019-04-22T16:07:10.860Z,99730.47
2019-04-22T16:09:41.518Z,99731.99
2019-04-22T16:12:18.792Z,99733.34
2019-04-22T16:14:47.351Z,99733.83
2019-04-22T16:17:12.752Z,99733.03
2019-04-22T16:19:43.260Z,99732.43
2019-04-22T16:22:18.336Z,99740.34
2019-04-22T16:24:58.187Z,99738.48
2019-04-22T16:27:28.347Z,99734.84
2019-04-22T16:29:57.349Z,99732.41
2019-04-22T16:32:27.807Z,99734.09
2019-04-22T16:34:56.860Z,99732.74
2019-04-22T16:37:25.916Z,99731.73
2019-04-22T16:39:54.897Z,99732.59
2019-04-22T16:42:33.767Z,99735.09
2019-04-22T16:44:55.686Z,99732.26
2019-04-22T16:47:25.712Z,99731.40
2019-04-22T16:49:55.202Z,99732.44
2019-04-22T16:52:25.853Z,99730.91
2019-04-22T16:54:55.093Z,99726.36
2019-04-22T16:57:26.025Z,99731.06
2019-04-22T16:59:54.977Z,99735.28
2019-04-22T17:02:45.224Z,99732.41
2019-04-22T17:05:41.399Z,99728.01
2019-04-22T17:08:12.210Z,99728.83
2019-04-22T17:10:41.912Z,99728.43
2019-04-22T17:13:17.499Z,99724.37
2019-04-22T17:15:41.684Z,99722.16
2019-04-22T17:18:10.607Z,99727.55
2019-04-22T17:20:40.456Z,99725.98
2019-04-22T17:23:09.680Z,99726.47
2019-04-22T17:25:38.655Z,99730.83
2019-04-22T17:28:07.842Z,99726.80
2019-04-22T17:30:36.810Z,99731.12
2019-04-22T17:33:05.826Z,99722.66
2019-04-22T17:35:36.013Z,99724.86
2019-04-22T17:38:12.671Z,99728.15
2019-04-22T17:40:52.245Z,99722.77
2019-04-22T17:43:36.082Z,99730.34
2019-04-22T17:46:12.035Z,99737.22
2019-04-22T17:48:57.834Z,99735.84
2019-04-22T17:51:31.428Z,99726.00
2019-04-22T17:54:02.872Z,99734.99
2019-04-22T17:56:33.970Z,99731.52
2019-04-22T17:59:02.463Z,99734.09
2019-04-22T18:01:35.671Z,99744.53
2019-04-22T18:03:52.849Z,99736.55
2019-04-22T18:06:46.945Z,99740.16
2019-04-22T18:09:05.317Z,99737.34
2019-04-22T18:12:01.091Z,99738.91
2019-04-22T18:14:30.462Z,99741.46
2019-04-22T18:16:41.280Z,99741.07
2019-04-22T18:19:10.127Z,99738.68
2019-04-22T18:21:36.151Z,99742.91
2019-04-22T18:24:02.674Z,99734.47
2019-04-22T18:26:43.511Z,99738.92
2019-04-22T18:29:11.284Z,99743.23
2019-04-22T18:31:38.572Z,99744.87
2019-04-22T18:34:10.122Z,99745.44
2019-04-22T18:36:40.525Z,99748.31
2019-04-22T18:39:22.702Z,99754.25
2019-04-22T18:41:43.982Z,99752.23
2019-04-22T18:44:19.930Z,99747.29
2019-04-22T18:46:50.950Z,99749.88
2019-04-22T18:49:17.202Z,99751.88
2019-04-22T18:51:51.839Z,99752.13
2019-04-22T18:54:48.514Z,99756.44
2019-04-22T18:57:20.778Z,99753.47
2019-04-22T18:59:34.133Z,99754.31
2019-04-22T19:02:05.364Z,99756.91
2019-04-22T19:04:40.887Z,99761.58
2019-04-22T19:07:33.197Z,99766.02
2019-04-22T19:12:32.041Z,99763.80
2019-04-22T19:14:57.033Z,99771.63
2019-04-22T19:17:35.432Z,99775.58
2019-04-22T19:20:02.847Z,99774.38
2019-04-22T19:22:29.941Z,99775.62
2019-04-22T19:24:54.691Z,99779.77
2019-04-22T19:27:24.860Z,99767.72
2019-04-22T19:30:07.479Z,99779.44
2019-04-22T19:32:34.657Z,99786.20
2019-04-22T19:34:57.152Z,99783.28
2019-04-22T19:37:28.417Z,99791.45
2019-04-22T19:40:09.493Z,99786.02
2019-04-22T19:42:40.818Z,99787.84
2019-04-22T19:45:02.617Z,99785.58
2019-04-22T19:47:38.975Z,99786.09
2019-04-22T19:50:15.036Z,99788.18
2019-04-22T19:52:50.069Z,99791.98
2019-04-22T19:55:11.002Z,99789.04
2019-04-22T19:57:37.424Z,99785.50
2019-04-22T20:00:11.060Z,99784.91
2019-04-22T20:03:14.886Z,99786.66
2019-04-22T20:05:43.891Z,99788.23
2019-04-22T20:08:14.514Z,99787.17
2019-04-22T20:10:46.125Z,99797.67
2019-04-22T20:13:19.964Z,99785.89
2019-04-22T20:15:41.145Z,99783.70
2019-04-22T20:18:27.056Z,99783.22
2019-04-22T20:20:56.116Z,99779.81
2019-04-22T20:23:14.458Z,99781.28
2019-04-22T20:25:44.547Z,99780.94
2019-04-22T20:28:19.359Z,99786.91
2019-04-22T20:30:50.580Z,99782.69
2019-04-22T20:33:27.095Z,99787.31
2019-04-22T20:35:55.846Z,99778.21
2019-04-22T20:38:27.713Z,99774.12
2019-04-22T20:40:55.681Z,99785.09
2019-04-22T20:43:33.304Z,99782.07
2019-04-22T20:45:57.721Z,99780.14
2019-04-22T20:48:16.941Z,99784.28
2019-04-22T20:50:57.835Z,99774.49
2019-04-22T20:53:31.173Z,99772.91
2019-04-22T20:56:00.700Z,99771.22
2019-04-22T20:58:28.639Z,99769.30
2019-04-22T21:00:53.050Z,99774.56
2019-04-22T21:03:20.893Z,99768.73
2019-04-22T21:05:53.054Z,99765.47
2019-04-22T21:08:35.111Z,99752.14
2019-04-22T21:10:50.986Z,99759.44
2019-04-22T21:13:28.141Z,99761.25
2019-04-22T21:16:09.405Z,99758.09
2019-04-22T21:18:30.756Z,99757.29
2019-04-22T21:21:09.631Z,99757.20
2019-04-22T21:23:27.617Z,99749.92
2019-04-22T21:26:11.076Z,99740.34
2019-04-22T21:28:38.373Z,99739.27
2019-04-22T21:31:14.860Z,99732.59
2019-04-22T21:33:40.833Z,99730.62
2019-04-22T21:38:42.448Z,99721.52
2019-04-22T21:41:09.969Z,99716.44
2019-04-22T21:43:44.956Z,99705.53
2019-04-22T21:46:13.105Z,99707.82
2019-04-22T21:48:59.716Z,99709.16
2019-04-22T21:51:19.182Z,99706.27
2019-04-22T21:53:52.529Z,99694.37
2019-04-22T21:59:00.141Z,99692.95
2019-04-22T22:01:35.510Z,99686.02
2019-04-22T22:04:00.163Z,99695.50
2019-04-22T22:06:23.510Z,99694.67
2019-04-22T22:09:05.906Z,99695.28
2019-04-22T22:11:27.786Z,99700.76
2019-04-22T22:14:01.927Z,99702.23
2019-04-22T22:16:30.820Z,99704.55
2019-04-22T22:19:08.099Z,99692.66
2019-04-22T22:24:10.139Z,99676.37
2019-04-22T22:26:40.581Z,99688.17
2019-04-22T22:29:10.413Z,99677.27
2019-04-22T22:31:41.285Z,99679.44
2019-04-22T22:34:09.746Z,99679.22
2019-04-22T22:36:33.543Z,99674.73
2019-04-22T22:39:04.000Z,99675.81
2019-04-22T22:41:19.679Z,99669.27
2019-04-22T22:43:51.120Z,99672.80
2019-04-22T22:46:31.875Z,99663.09
2019-04-22T22:49:09.838Z,99666.24
2019-04-22T22:51:47.507Z,99670.38
2019-04-22T22:54:16.525Z,99655.81
2019-04-22T22:56:47.553Z,99654.61
2019-04-22T22:59:18.561Z,99649.87
2019-04-22T23:01:45.380Z,99649.52
2019-04-22T23:04:20.906Z,99652.33
2019-04-22T23:06:53.230Z,99638.75
2019-04-22T23:09:13.386Z,99633.53
2019-04-22T23:14:21.488Z,99629.92
2019-04-22T23:16:37.788Z,99634.87
2019-04-22T23:19:06.385Z,99626.30
2019-04-22T23:21:42.753Z,99627.52
2019-04-22T23:24:35.978Z,99621.09
2019-04-22T23:27:04.385Z,99617.59
2019-04-22T23:29:45.957Z,99622.43
2019-04-22T23:32:22.720Z,99619.54
2019-04-22T23:35:01.734Z,99608.64
2019-04-22T23:37:28.939Z,99608.51
2019-04-22T23:40:16.045Z,99598.22
2019-04-22T23:42:41.104Z,99600.16
2019-04-22T23:45:10.816Z,99603.27
2019-04-22T23:47:49.923Z,99590.69
2019-04-22T23:50:33.975Z,99592.98
2019-04-22T23:53:04.837Z,99590.95
2019-04-22T23:55:37.433Z,99581.73
2019-04-22T23:58:02.716Z,99586.69
